KRWL/RWL METAR and TAF weather

Enter ICAO airport designator
Station Type Date Time Source
KRWL METAR 2021/04/14 19:53 UTC NOAA

KRWL 141953Z AUTO 06023G32KT 9SM -SN OVC016 M03/M08 A3001 RMK AO2 PK WND 07034/1914 SLP193 P0000 T10281083 $


Station Type Date Time Source
KRWL Decoded METAR 2021/04/14 19:53 UTC NOAA

RAWLINS MUNICIPAL AIRPORT, WY, United States (KRWL) 41-48N 107-12W
Apr 14, 2021 - 03:53 PM EDT / 2021.04.14 1953 UTC
Wind: from the ENE (060 degrees) at 26 MPH (23 KT) gusting to 37 MPH (32 KT):0
Visibility: 9 mile(s):0
Sky conditions: overcast
Weather: light snow
Precipitation last hour: A trace
Temperature: 27.0 F (-2.8 C)
Windchill: 12 F (-11 C):1
Dew Point: 17.1 F (-8.3 C)
Relative Humidity: 65%
Pressure (altimeter): 30.01 in. Hg (1016 hPa)
ob: KRWL 141953Z AUTO 06023G32KT 9SM -SN OVC016 M03/M08 A3001 RMK AO2 PK WND 07034/1914 SLP193 P0000 T10281083
cycle: 20

Station Type Date Time Source
KRWL TAF 2021/04/14 20:22 UTC NOAA

TAF
AMD KRWL 142020Z 1420/1518 06019KT 5SM -SN OVC015
FM142300 04021G29KT 1/2SM SN OVC015
FM150600 04020G30KT 3/4SM -SN OVC007
FM151000 03022G29KT 4SM -SN OVC015
FM151200 03016KT 1/2SM SN OVC015

Example: see airport list